Portada
METAR-TAF:

METAR-TAF

Aeroports :

Langlade County Airport

Antigo, Wisconsin, Estats Units d'Amèrica

latitud: 45-09-15N, longitud: 89-06-39W, altitud: 464 m

Observació

L'informe es va fer fa 20 minuts, a les 03:35 UTC
Vent 8 kt del Sud-Est
Temperatura 19°C
Humitat 100%
Pressió 1013 hPa
Visibilitat: 16.1 km
Núvols disperses a una alçada de 6000 ft
Núvols disperses a una alçada de 9000 ft
Cel ennuvolat a una alçada de 12000 ft

METAR: KAIG 180335Z AUTO 14008KT 10SM SCT060 SCT090 BKN120 19/19 A2991 RMK AO2 P0001 T01930193

Hora: 22:55 (03:55 UTC)


TAF: manca

Observacions i pronòstics meteorològics de més de 4000 aeroports (METAR i TAF).

Les estacions disponibles són els punts grocs i vermells al mapa.

Posi el ratolí al punt desitjat per veure el nom de l'estació.

Feu clic per veure les observacions i els pronòstics meteorològics.

Per canviar el mapa: feu clic els botons verds amb una creu de color negre per apropar; al botó verd amb un guió per allunyar la imatge; o en les fletxes verdes per a mapes adjacents.


METAR-TAF: